Time;durP1;ratioP1;P1;durP2;ratioP2;P2;SDS_P1;SDS_P2;PMS_P1;PMS_P2;Temp;Humidity;BMP_temperature;BMP_pressure;BME280_temperature;BME280_humidity;BME280_pressure;Samples;Min_cycle;Max_cycle;Signal;HPM_P1;HPM_P2
2022/02/21 00:00:18;;;;;;;39.53;8.90;;;9.10;99.90;;;;;;5096411;28;20103;-73
2022/02/21 00:02:46;;;;;;;38.80;8.77;;;9.10;99.90;;;;;;5095816;28;20020;-73
2022/02/21 00:05:16;;;;;;;33.28;7.43;;;9.10;99.90;;;;;;5095234;28;20059;-73
2022/02/21 00:07:43;;;;;;;35.53;7.90;;;9.10;99.90;;;;;;5095760;28;20154;-72
2022/02/21 00:10:09;;;;;;;42.08;7.15;;;9.10;99.90;;;;;;5095916;28;20016;-73
2022/02/21 00:12:35;;;;;;;26.50;6.28;;;9.10;99.90;;;;;;5095631;28;20489;-72
2022/02/21 00:15:02;;;;;;;37.85;8.90;;;9.10;99.90;;;;;;5095755;28;20024;-73
2022/02/21 00:17:28;;;;;;;33.33;5.57;;;9.00;99.90;;;;;;5095513;28;20518;-72
2022/02/21 00:19:54;;;;;;;34.55;6.70;;;8.90;99.90;;;;;;5095767;28;20016;-73
2022/02/21 00:22:20;;;;;;;23.00;6.97;;;8.80;99.90;;;;;;5095431;28;20466;-73
2022/02/21 00:24:45;;;;;;;28.70;6.95;;;8.70;99.90;;;;;;5095314;28;20023;-73
2022/02/21 00:27:11;;;;;;;26.95;7.43;;;8.50;99.90;;;;;;5095278;28;20038;-73
2022/02/21 00:29:37;;;;;;;31.23;6.43;;;8.50;99.90;;;;;;5095307;28;20099;-72
2022/02/21 00:32:03;;;;;;;38.10;7.68;;;8.40;99.90;;;;;;5095161;28;20028;-73
2022/02/21 00:34:28;;;;;;;38.05;7.95;;;8.30;99.90;;;;;;5095075;28;20024;-73
2022/02/21 00:36:54;;;;;;;29.48;6.80;;;8.30;99.90;;;;;;5095318;28;20082;-73
2022/02/21 00:39:20;;;;;;;35.40;6.68;;;8.20;99.90;;;;;;5095287;28;20481;-73
2022/02/21 00:41:45;;;;;;;28.20;5.53;;;8.10;99.90;;;;;;5094724;28;20035;-73
2022/02/21 00:44:11;;;;;;;32.25;6.25;;;8.10;99.90;;;;;;5094720;28;20385;-73
2022/02/21 00:46:37;;;;;;;25.17;5.28;;;8.20;99.90;;;;;;5094912;28;20028;-73
2022/02/21 00:49:03;;;;;;;30.15;6.25;;;8.30;99.90;;;;;;5095099;28;20027;-73
2022/02/21 00:51:29;;;;;;;25.83;6.03;;;8.50;99.90;;;;;;5095392;28;20035;-73
2022/02/21 00:53:55;;;;;;;22.77;5.28;;;8.50;99.90;;;;;;5095014;28;20016;-73
2022/02/21 00:56:21;;;;;;;24.85;4.80;;;8.50;99.90;;;;;;5094690;28;20032;-73
2022/02/21 00:58:46;;;;;;;25.23;5.70;;;8.50;99.90;;;;;;5094981;28;20020;-73
2022/02/21 01:01:12;;;;;;;27.80;7.03;;;8.40;99.90;;;;;;5094909;28;20028;-72
2022/02/21 01:03:38;;;;;;;26.58;6.18;;;8.20;99.90;;;;;;5094618;28;20016;-72
2022/02/21 01:06:04;;;;;;;32.28;6.63;;;8.00;99.90;;;;;;5095156;28;20032;-73
2022/02/21 01:08:29;;;;;;;24.85;6.57;;;7.90;99.90;;;;;;5094459;28;20031;-73
2022/02/21 01:10:55;;;;;;;22.48;5.88;;;7.90;99.90;;;;;;5094405;28;20032;-73
2022/02/21 01:13:21;;;;;;;21.85;5.53;;;7.90;99.90;;;;;;5094432;28;20031;-73
2022/02/21 01:15:46;;;;;;;29.55;5.47;;;8.00;99.90;;;;;;5094253;28;20024;-73
2022/02/21 01:18:12;;;;;;;33.67;6.25;;;8.20;99.90;;;;;;5094333;28;20081;-73
2022/02/21 01:20:38;;;;;;;26.52;4.75;;;8.30;99.90;;;;;;5094581;28;20027;-73
2022/02/21 01:23:03;;;;;;;21.23;5.43;;;8.30;99.90;;;;;;5094271;28;20390;-73
2022/02/21 01:25:29;;;;;;;29.67;4.75;;;8.30;99.90;;;;;;5094178;28;20501;-73
2022/02/21 01:27:55;;;;;;;21.50;4.50;;;8.30;99.90;;;;;;5094188;28;20026;-73
2022/02/21 01:30:20;;;;;;;27.58;5.53;;;8.30;99.90;;;;;;5094087;28;20066;-73
2022/02/21 01:32:46;;;;;;;22.70;5.32;;;8.30;99.90;;;;;;5094079;28;20059;-74
2022/02/21 01:35:12;;;;;;;35.55;6.38;;;8.30;99.90;;;;;;5094226;28;20032;-74
2022/02/21 01:37:37;;;;;;;28.65;5.03;;;8.20;99.90;;;;;;5094279;28;20027;-73
2022/02/21 01:40:07;;;;;;;28.48;5.38;;;8.00;99.90;;;;;;5094198;28;20016;-75
2022/02/21 01:42:33;;;;;;;25.05;5.00;;;7.90;99.90;;;;;;5094188;28;20016;-74
2022/02/21 01:44:59;;;;;;;26.73;5.93;;;7.80;99.90;;;;;;5093844;28;20035;-73
2022/02/21 01:47:25;;;;;;;23.25;5.47;;;7.80;99.90;;;;;;5094141;28;20016;-73
2022/02/21 01:49:51;;;;;;;30.88;5.82;;;7.90;99.90;;;;;;5093757;28;20117;-73
2022/02/21 01:52:18;;;;;;;23.83;5.25;;;7.90;99.90;;;;;;5092439;28;20055;-73
2022/02/21 01:54:44;;;;;;;25.90;5.63;;;8.00;99.90;;;;;;5093867;28;20027;-74
2022/02/21 01:57:10;;;;;;;27.58;5.75;;;8.00;99.90;;;;;;5094090;28;20020;-73
2022/02/21 01:59:38;;;;;;;31.45;6.18;;;8.10;99.90;;;;;;5093605;28;20024;-76
2022/02/21 02:02:05;;;;;;;34.88;5.97;;;8.10;99.90;;;;;;5092179;28;20115;-72
2022/02/21 02:04:31;;;;;;;24.02;6.80;;;8.10;99.90;;;;;;5093536;28;20132;-74
2022/02/21 02:06:57;;;;;;;34.95;6.07;;;8.20;99.90;;;;;;5093782;28;20031;-73
2022/02/21 02:09:23;;;;;;;29.33;5.28;;;8.20;99.90;;;;;;5093460;28;20067;-73
2022/02/21 02:11:51;;;;;;;26.63;5.57;;;8.20;99.90;;;;;;5093704;28;20035;-73
2022/02/21 02:14:26;;;;;;;25.35;5.50;;;8.20;99.90;;;;;;5093436;28;20024;-73
2022/02/21 02:16:51;;;;;;;24.48;6.07;;;8.30;99.90;;;;;;5093314;28;20024;-73
2022/02/21 02:19:17;;;;;;;27.38;5.75;;;8.30;99.90;;;;;;5093577;28;20492;-74
2022/02/21 02:21:46;;;;;;;30.08;5.53;;;8.20;99.90;;;;;;5093570;28;20018;-74
2022/02/21 02:24:12;;;;;;;28.00;6.70;;;8.10;99.90;;;;;;5093602;28;20021;-74
2022/02/21 02:26:40;;;;;;;28.75;5.70;;;8.10;99.90;;;;;;5093283;28;20073;-73
2022/02/21 02:29:06;;;;;;;29.98;5.28;;;8.00;99.90;;;;;;5093316;28;20028;-73
2022/02/21 02:31:32;;;;;;;28.40;6.32;;;7.90;99.90;;;;;;5093200;28;20074;-72
2022/02/21 02:33:58;;;;;;;23.67;5.35;;;8.00;99.90;;;;;;5093511;28;20054;-72
2022/02/21 02:36:24;;;;;;;33.22;6.25;;;7.90;99.90;;;;;;5093114;28;20043;-74
2022/02/21 02:38:49;;;;;;;25.88;5.93;;;7.70;99.90;;;;;;5093143;28;20424;-73
2022/02/21 02:41:15;;;;;;;36.05;6.65;;;7.70;99.90;;;;;;5091847;28;20031;-72
2022/02/21 02:43:41;;;;;;;34.05;5.88;;;7.80;99.90;;;;;;5093157;28;20027;-74
2022/02/21 02:46:07;;;;;;;38.90;6.95;;;7.60;99.90;;;;;;5093651;28;20085;-74
2022/02/21 02:48:33;;;;;;;32.83;6.47;;;7.60;99.90;;;;;;5093381;28;20107;-73
2022/02/21 02:51:00;;;;;;;31.00;5.82;;;7.50;99.90;;;;;;5093065;28;20382;-73
2022/02/21 02:53:25;;;;;;;26.38;6.32;;;7.50;99.90;;;;;;5093035;28;20455;-72
2022/02/21 02:55:51;;;;;;;29.05;6.32;;;7.50;99.90;;;;;;5092824;28;20047;-73
2022/02/21 02:58:17;;;;;;;28.08;6.05;;;7.50;99.90;;;;;;5092981;28;20539;-73
2022/02/21 03:00:42;;;;;;;23.90;4.97;;;7.50;99.90;;;;;;5092908;28;20028;-72
2022/02/21 03:03:08;;;;;;;23.90;5.35;;;7.40;99.90;;;;;;5092937;28;20066;-74
2022/02/21 03:05:34;;;;;;;27.00;5.15;;;7.40;99.90;;;;;;5093495;28;20478;-74
2022/02/21 03:07:59;;;;;;;27.30;5.72;;;7.40;99.90;;;;;;5096865;28;20522;-72
2022/02/21 03:10:25;;;;;;;28.67;7.28;;;7.40;99.90;;;;;;5097030;28;20035;-73
2022/02/21 03:12:50;;;;;;;26.20;6.03;;;7.40;99.90;;;;;;5096730;28;20028;-73
2022/02/21 03:15:16;;;;;;;26.88;5.63;;;7.40;99.90;;;;;;5096715;28;20035;-73
2022/02/21 03:17:42;;;;;;;24.23;5.45;;;7.40;99.90;;;;;;5096772;28;20035;-73
2022/02/21 03:20:09;;;;;;;24.67;5.93;;;7.40;99.90;;;;;;5095296;28;20111;-72
2022/02/21 03:22:34;;;;;;;32.30;5.90;;;7.30;99.90;;;;;;5096862;28;20024;-73
2022/02/21 03:25:00;;;;;;;22.58;5.32;;;7.40;99.90;;;;;;5096545;28;20027;-71
2022/02/21 03:27:26;;;;;;;25.75;5.30;;;7.50;99.90;;;;;;5096767;28;20020;-73
2022/02/21 03:29:51;;;;;;;31.15;5.93;;;7.50;99.90;;;;;;5096679;28;20052;-73
2022/02/21 03:32:17;;;;;;;30.63;6.28;;;7.60;99.90;;;;;;5096399;28;20060;-72
2022/02/21 03:34:43;;;;;;;36.42;6.38;;;7.50;99.90;;;;;;5096599;28;20020;-73
2022/02/21 03:37:09;;;;;;;24.48;6.38;;;7.50;99.90;;;;;;5096274;28;20035;-73
2022/02/21 03:39:34;;;;;;;27.40;5.47;;;7.40;99.90;;;;;;5096538;28;20426;-74
2022/02/21 03:42:00;;;;;;;30.70;7.63;;;7.40;99.90;;;;;;5096183;28;20098;-74
2022/02/21 03:44:26;;;;;;;26.98;6.60;;;7.40;99.90;;;;;;5096176;28;20047;-72
2022/02/21 03:46:51;;;;;;;36.47;7.40;;;7.30;99.90;;;;;;5096446;28;20441;-72
2022/02/21 03:49:17;;;;;;;29.55;6.00;;;7.30;99.90;;;;;;5096074;28;20389;-74
2022/02/21 03:51:43;;;;;;;36.17;6.20;;;7.20;99.90;;;;;;5096035;28;20036;-73
2022/02/21 03:54:09;;;;;;;37.55;6.35;;;7.20;99.90;;;;;;5095916;28;20394;-72
2022/02/21 03:56:35;;;;;;;38.90;7.25;;;7.20;99.90;;;;;;5096168;28;20028;-73
2022/02/21 03:59:01;;;;;;;33.60;6.10;;;7.20;99.90;;;;;;5094604;28;20044;-72
2022/02/21 04:01:26;;;;;;;26.08;5.25;;;7.30;99.90;;;;;;5095793;28;20410;-72
2022/02/21 04:03:52;;;;;;;28.10;6.15;;;7.40;99.90;;;;;;5095580;28;20040;-74
2022/02/21 04:06:17;;;;;;;30.65;6.13;;;7.50;99.90;;;;;;5096072;28;20099;-71
2022/02/21 04:08:43;;;;;;;30.98;6.22;;;7.60;99.90;;;;;;5095963;28;20391;-73
2022/02/21 04:11:09;;;;;;;28.25;5.88;;;7.50;99.90;;;;;;5095624;28;20038;-72
2022/02/21 04:13:34;;;;;;;26.02;6.57;;;7.50;99.90;;;;;;5095609;28;20031;-73
2022/02/21 04:16:00;;;;;;;27.70;6.18;;;7.40;99.90;;;;;;5096035;28;20028;-72
2022/02/21 04:18:26;;;;;;;29.50;6.18;;;7.40;99.90;;;;;;5094616;28;20478;-74
2022/02/21 04:20:52;;;;;;;26.60;4.82;;;7.30;99.90;;;;;;5095763;28;20020;-73
2022/02/21 04:23:18;;;;;;;27.80;5.75;;;7.40;99.90;;;;;;5095460;28;20497;-73
2022/02/21 04:25:45;;;;;;;30.67;6.38;;;7.30;99.90;;;;;;5095910;28;20032;-74
2022/02/21 04:28:10;;;;;;;31.00;5.15;;;7.20;99.90;;;;;;5095330;28;20490;-74
2022/02/21 04:30:40;;;;;;;30.17;5.93;;;7.20;99.90;;;;;;5095256;28;20141;-73
2022/02/21 04:33:05;;;;;;;38.53;7.47;;;7.20;99.90;;;;;;5095538;28;20028;-73
2022/02/21 04:35:31;;;;;;;33.35;7.10;;;7.10;99.90;;;;;;5095337;28;20382;-73
2022/02/21 04:37:56;;;;;;;34.15;5.78;;;7.10;99.90;;;;;;5095115;28;20032;-73
2022/02/21 04:40:25;;;;;;;29.80;6.38;;;7.20;99.90;;;;;;5095620;28;20024;-72
2022/02/21 04:42:53;;;;;;;35.15;5.60;;;7.10;99.90;;;;;;5095032;28;20027;-74
2022/02/21 04:45:19;;;;;;;27.25;5.47;;;7.20;99.90;;;;;;5095544;28;20022;-73
2022/02/21 04:47:45;;;;;;;31.17;6.13;;;7.10;99.90;;;;;;5094928;28;20024;-73
2022/02/21 04:50:11;;;;;;;33.05;5.78;;;7.10;99.90;;;;;;5095145;28;20032;-73
2022/02/21 04:52:37;;;;;;;20.50;4.97;;;7.00;99.90;;;;;;5095119;28;20424;-75
2022/02/21 04:55:05;;;;;;;27.23;5.20;;;7.10;99.90;;;;;;5094606;28;20055;-73
2022/02/21 04:57:30;;;;;;;25.40;6.15;;;7.10;99.90;;;;;;5094693;28;20489;-74
2022/02/21 04:59:56;;;;;;;21.67;4.85;;;7.10;99.90;;;;;;5094962;28;20055;-74
2022/02/21 05:02:22;;;;;;;24.85;6.60;;;7.00;99.90;;;;;;5094712;28;20099;-72
2022/02/21 05:04:47;;;;;;;28.25;6.18;;;7.00;99.90;;;;;;5094423;28;20076;-74
2022/02/21 05:07:14;;;;;;;23.23;5.30;;;7.00;99.90;;;;;;5094584;28;20457;-73
2022/02/21 05:09:40;;;;;;;23.30;5.78;;;7.10;99.90;;;;;;5094565;28;20027;-74
2022/02/21 05:12:06;;;;;;;22.65;5.78;;;7.30;99.90;;;;;;5094497;28;20027;-73
2022/02/21 05:14:31;;;;;;;24.75;6.32;;;7.40;99.90;;;;;;5094715;28;20363;-73
2022/02/21 05:16:57;;;;;;;25.98;6.38;;;7.50;99.90;;;;;;5094258;28;20069;-73
2022/02/21 05:19:22;;;;;;;36.90;6.55;;;7.60;99.90;;;;;;5094326;28;20024;-73
2022/02/21 05:21:48;;;;;;;29.77;5.47;;;7.80;99.90;;;;;;5094586;28;20145;-74
2022/02/21 05:24:14;;;;;;;27.52;5.50;;;7.80;99.90;;;;;;5092951;28;20393;-75
2022/02/21 05:26:40;;;;;;;30.83;5.68;;;7.70;99.90;;;;;;5094470;28;20030;-72
2022/02/21 05:29:06;;;;;;;23.90;6.10;;;7.60;99.90;;;;;;5093854;28;20023;-73
2022/02/21 05:31:32;;;;;;;27.17;5.25;;;7.50;99.90;;;;;;5094171;28;20028;-73
2022/02/21 05:33:58;;;;;;;23.15;6.25;;;7.50;99.90;;;;;;5094342;28;20085;-73
2022/02/21 05:36:23;;;;;;;23.38;4.47;;;7.40;99.90;;;;;;5093950;28;20028;-73
2022/02/21 05:38:49;;;;;;;20.13;4.18;;;7.30;99.90;;;;;;5094530;28;20024;-73
2022/02/21 05:41:15;;;;;;;21.75;3.92;;;7.30;99.90;;;;;;5093940;28;20016;-73
2022/02/21 05:43:40;;;;;;;19.73;4.80;;;7.30;99.90;;;;;;5093901;28;20073;-73
2022/02/21 05:46:06;;;;;;;20.20;4.88;;;7.20;99.90;;;;;;5093888;28;20024;-73
2022/02/21 05:48:33;;;;;;;22.38;4.00;;;7.20;99.90;;;;;;5093797;28;20024;-73
2022/02/21 05:50:59;;;;;;;21.48;5.60;;;7.20;99.90;;;;;;5094108;28;20096;-73
2022/02/21 05:53:24;;;;;;;24.00;4.93;;;7.30;99.90;;;;;;5092487;28;20547;-73
2022/02/21 05:55:50;;;;;;;21.33;3.63;;;7.30;99.90;;;;;;5093593;28;20052;-73
2022/02/21 05:58:16;;;;;;;17.15;3.75;;;7.50;99.90;;;;;;5093693;28;20111;-73
2022/02/21 06:00:49;;;;;;;16.15;4.32;;;7.60;99.90;;;;;;5093613;28;20471;-73
2022/02/21 06:03:16;;;;;;;19.77;4.30;;;7.60;99.90;;;;;;5093900;28;20077;-73
2022/02/21 06:05:43;;;;;;;21.98;4.00;;;7.70;99.90;;;;;;5093153;28;20044;-73
2022/02/21 06:08:09;;;;;;;20.45;5.07;;;7.60;99.90;;;;;;5093844;28;20413;-73
2022/02/21 06:10:34;;;;;;;17.63;4.13;;;7.50;99.90;;;;;;5093543;28;20020;-73
2022/02/21 06:13:00;;;;;;;20.23;3.88;;;7.50;99.90;;;;;;5093447;28;20086;-73
2022/02/21 06:15:26;;;;;;;28.98;4.45;;;7.50;99.90;;;;;;5093644;28;20020;-73
2022/02/21 06:17:51;;;;;;;30.90;6.95;;;7.30;99.90;;;;;;5093682;28;20433;-73
2022/02/21 06:20:17;;;;;;;20.75;4.65;;;7.20;99.90;;;;;;5093372;28;20027;-73
2022/02/21 06:22:43;;;;;;;14.80;4.40;;;7.10;99.90;;;;;;5093320;28;20072;-73
2022/02/21 06:25:09;;;;;;;25.65;4.80;;;7.00;99.90;;;;;;5093328;28;20048;-73
2022/02/21 06:27:35;;;;;;;20.08;4.25;;;7.00;99.90;;;;;;5091996;28;20031;-73
2022/02/21 06:30:01;;;;;;;25.23;5.13;;;6.90;99.90;;;;;;5093312;28;20023;-73
2022/02/21 06:32:26;;;;;;;18.45;4.60;;;6.80;99.90;;;;;;5093264;28;20032;-73
2022/02/21 06:34:52;;;;;;;23.65;5.28;;;6.80;99.90;;;;;;5093520;28;20024;-73
2022/02/21 06:37:19;;;;;;;26.55;4.57;;;6.80;99.90;;;;;;5093108;28;20020;-73
2022/02/21 06:39:44;;;;;;;20.67;4.47;;;6.90;99.90;;;;;;5091916;28;20069;-74
2022/02/21 06:42:10;;;;;;;22.38;4.93;;;7.10;99.90;;;;;;5096992;28;20020;-73
2022/02/21 06:44:36;;;;;;;28.25;4.97;;;7.20;99.90;;;;;;5097209;28;20043;-73
2022/02/21 06:47:02;;;;;;;22.90;4.82;;;7.30;99.90;;;;;;5097524;28;20058;-74
2022/02/21 06:49:28;;;;;;;24.40;5.05;;;7.40;99.90;;;;;;5097194;28;20462;-73
2022/02/21 06:51:54;;;;;;;28.35;5.68;;;7.40;99.90;;;;;;5097479;28;20052;-73
2022/02/21 06:54:19;;;;;;;22.42;5.65;;;7.40;99.90;;;;;;5095785;28;20517;-73
2022/02/21 06:56:45;;;;;;;28.17;7.22;;;7.40;99.90;;;;;;5096986;28;20032;-73
2022/02/21 06:59:11;;;;;;;25.45;5.93;;;7.40;99.90;;;;;;5097149;28;20012;-73
2022/02/21 07:01:37;;;;;;;29.70;5.00;;;7.40;99.90;;;;;;5097280;28;20517;-73
2022/02/21 07:04:02;;;;;;;34.95;6.15;;;7.30;99.90;;;;;;5096755;28;20048;-73
2022/02/21 07:06:28;;;;;;;32.75;6.30;;;7.30;99.90;;;;;;5097216;28;20105;-73
2022/02/21 07:08:54;;;;;;;28.95;6.07;;;7.30;99.90;;;;;;5096851;28;20531;-73
2022/02/21 07:11:19;;;;;;;27.70;6.45;;;7.30;99.90;;;;;;5096799;28;20032;-73
2022/02/21 07:13:45;;;;;;;29.98;6.32;;;7.20;99.90;;;;;;5097071;28;20531;-74
2022/02/21 07:16:11;;;;;;;29.13;5.60;;;7.20;99.90;;;;;;5095406;28;20035;-74
2022/02/21 07:18:37;;;;;;;24.70;5.40;;;7.20;99.90;;;;;;5096698;28;20032;-73
2022/02/21 07:21:04;;;;;;;37.40;6.63;;;7.30;99.90;;;;;;5096600;28;20600;-74
2022/02/21 07:23:35;;;;;;;25.95;6.03;;;7.30;99.90;;;;;;5096881;28;20025;-74
2022/02/21 07:26:01;;;;;;;27.95;5.95;;;7.30;99.90;;;;;;5096850;28;20039;-73
2022/02/21 07:28:27;;;;;;;33.25;6.32;;;7.50;99.90;;;;;;5096509;28;20024;-73
2022/02/21 07:30:53;;;;;;;27.92;6.35;;;7.60;99.90;;;;;;5095214;28;20034;-74
2022/02/21 07:33:19;;;;;;;27.58;7.00;;;7.70;99.90;;;;;;5096422;28;20020;-73
2022/02/21 07:35:44;;;;;;;26.90;6.25;;;7.90;99.90;;;;;;5096546;28;20028;-74
2022/02/21 07:38:10;;;;;;;37.92;6.45;;;7.90;99.90;;;;;;5095061;28;20024;-73
2022/02/21 07:40:36;;;;;;;30.30;6.05;;;8.00;99.90;;;;;;5096230;28;20382;-73
2022/02/21 07:43:01;;;;;;;24.63;5.90;;;8.10;99.90;;;;;;5096495;28;20020;-74
2022/02/21 07:45:27;;;;;;;31.42;6.53;;;8.10;99.90;;;;;;5096706;28;20048;-74
2022/02/21 07:47:58;;;;;;;27.63;5.68;;;8.20;99.90;;;;;;5096095;28;20043;-74
2022/02/21 07:50:26;;;;;;;25.00;6.30;;;8.30;99.90;;;;;;5096093;28;20076;-74
2022/02/21 07:52:52;;;;;;;23.08;5.72;;;8.40;99.90;;;;;;5096400;28;20571;-73
2022/02/21 07:55:18;;;;;;;22.75;5.80;;;8.80;99.90;;;;;;5098246;28;20024;-78
2022/02/21 07:57:45;;;;;;;32.00;6.55;;;8.90;99.90;;;;;;5104455;28;20049;-71
2022/02/21 08:00:13;;;;;;;22.85;6.95;;;9.10;99.90;;;;;;5114448;28;20038;-75
2022/02/21 08:02:40;;;;;;;29.40;6.53;;;8.90;99.90;;;;;;5100412;28;20493;-71
2022/02/21 08:05:06;;;;;;;27.75;5.78;;;8.80;99.90;;;;;;5095513;28;20048;-72
2022/02/21 08:07:32;;;;;;;32.30;5.57;;;8.70;99.90;;;;;;5095482;28;20099;-73
2022/02/21 08:09:58;;;;;;;29.90;6.20;;;8.60;99.90;;;;;;5096349;28;20490;-77
2022/02/21 08:12:24;;;;;;;25.35;5.40;;;8.50;99.90;;;;;;5098860;28;20063;-76
2022/02/21 08:14:49;;;;;;;26.73;5.53;;;8.60;99.90;;;;;;5104169;28;20053;-76
2022/02/21 08:17:15;;;;;;;26.50;5.10;;;8.80;99.90;;;;;;5116135;28;20069;-76
2022/02/21 08:19:41;;;;;;;32.80;5.30;;;9.10;99.90;;;;;;5116176;28;20020;-75
2022/02/21 08:22:08;;;;;;;20.50;5.40;;;9.40;99.90;;;;;;5116089;28;20039;-76
2022/02/21 08:24:34;;;;;;;23.45;5.88;;;9.70;99.90;;;;;;5109548;27;20028;-73
2022/02/21 08:26:59;;;;;;;27.38;6.00;;;10.00;99.90;;;;;;5094890;28;20039;-73
2022/02/21 08:29:25;;;;;;;26.10;5.78;;;10.60;99.90;;;;;;5095266;28;20390;-74
2022/02/21 08:31:54;;;;;;;20.88;6.40;;;11.10;99.90;;;;;;5102686;28;20108;-72
2022/02/21 08:34:20;;;;;;;24.95;5.63;;;10.80;99.90;;;;;;5111876;28;20024;-72
2022/02/21 08:36:46;;;;;;;28.13;5.85;;;10.40;99.90;;;;;;5094935;28;20024;-73
2022/02/21 08:39:12;;;;;;;30.83;7.10;;;10.20;99.90;;;;;;5094963;28;20094;-71
2022/02/21 08:41:37;;;;;;;31.10;6.63;;;10.50;99.90;;;;;;5097293;28;20115;-73
2022/02/21 08:44:03;;;;;;;30.35;6.47;;;10.30;99.90;;;;;;5109158;28;20032;-72
2022/02/21 08:46:29;;;;;;;24.42;6.28;;;10.00;99.90;;;;;;5095489;28;20055;-73
2022/02/21 08:48:56;;;;;;;38.83;6.88;;;9.70;99.90;;;;;;5094829;28;20051;-73
2022/02/21 08:51:21;;;;;;;32.15;6.88;;;9.50;99.90;;;;;;5095147;28;20027;-72
2022/02/21 08:53:47;;;;;;;23.15;5.97;;;9.20;99.90;;;;;;5095849;28;20027;-72
2022/02/21 08:56:13;;;;;;;32.38;6.85;;;9.10;99.90;;;;;;5094560;28;20062;-72
2022/02/21 08:58:39;;;;;;;35.15;7.65;;;9.10;99.90;;;;;;5095067;28;20027;-72
2022/02/21 09:01:05;;;;;;;24.83;6.30;;;9.10;99.90;;;;;;5094540;28;20016;-73
2022/02/21 09:03:30;;;;;;;34.30;6.38;;;9.20;99.90;;;;;;5093821;28;20028;-72
2022/02/21 09:05:56;;;;;;;38.40;7.22;;;9.50;99.90;;;;;;5114933;28;20043;-74
2022/02/21 09:08:22;;;;;;;31.58;6.80;;;9.70;99.90;;;;;;5114619;28;20059;-71
2022/02/21 09:10:48;;;;;;;28.55;8.10;;;10.10;99.90;;;;;;5114343;28;20020;-75
2022/02/21 09:13:14;;;;;;;32.67;7.75;;;10.40;99.90;;;;;;5114896;28;20052;-73
2022/02/21 09:15:40;;;;;;;36.38;6.25;;;10.80;99.90;;;;;;5095423;28;20496;-78
2022/02/21 09:18:06;;;;;;;24.73;6.15;;;12.20;99.90;;;;;;5095280;28;20028;-73
2022/02/21 09:20:32;;;;;;;22.77;6.35;;;15.10;99.90;;;;;;5093816;28;20382;-74
2022/02/21 09:22:59;;;;;;;27.75;5.47;;;14.50;99.90;;;;;;5095165;28;20065;-74
2022/02/21 09:25:24;;;;;;;28.17;6.25;;;13.90;99.90;;;;;;5107605;28;20024;-76
2022/02/21 09:27:52;;;;;;;26.65;5.88;;;13.50;99.90;;;;;;5113510;28;20022;-72
2022/02/21 09:30:18;;;;;;;33.55;6.30;;;12.80;99.90;;;;;;5103565;28;20024;-72
2022/02/21 09:32:44;;;;;;;28.98;6.38;;;12.10;99.90;;;;;;5111673;28;20015;-72
2022/02/21 09:35:10;;;;;;;27.88;6.97;;;11.70;99.90;;;;;;5108924;28;20023;-72
2022/02/21 09:37:36;;;;;;;26.58;6.25;;;11.20;99.90;;;;;;5114845;28;20051;-72
2022/02/21 09:40:11;;;;;;;23.95;6.38;;;10.70;99.90;;;;;;5114598;28;20402;-72
2022/02/21 09:42:38;;;;;;;36.33;7.30;;;10.40;99.90;;;;;;5098499;28;20050;-72
2022/02/21 09:45:08;;;;;;;29.73;6.50;;;10.30;99.90;;;;;;5102046;28;20020;-73
2022/02/21 09:47:34;;;;;;;34.53;6.85;;;10.20;99.90;;;;;;5103403;28;20032;-72
2022/02/21 09:50:00;;;;;;;31.17;6.28;;;10.60;99.90;;;;;;5092239;28;20505;-73
2022/02/21 09:52:27;;;;;;;29.13;5.22;;;11.90;99.90;;;;;;5101249;28;20028;-72
2022/02/21 09:54:54;;;;;;;29.45;5.70;;;13.00;99.90;;;;;;5106313;28;20477;-76
2022/02/21 09:57:20;;;;;;;30.00;5.97;;;12.60;99.90;;;;;;5095872;28;20024;-72
2022/02/21 09:59:46;;;;;;;28.15;6.50;;;12.30;99.90;;;;;;5110394;28;20016;-73
2022/02/21 10:02:19;;;;;;;26.15;6.13;;;12.00;99.90;;;;;;5114113;28;20547;-74
2022/02/21 10:04:45;;;;;;;28.17;6.72;;;12.00;99.90;;;;;;5106576;28;20032;-71
2022/02/21 10:07:11;;;;;;;26.90;6.95;;;12.20;99.90;;;;;;5108647;28;20020;-72
2022/02/21 10:09:42;;;;;;;25.90;7.18;;;12.90;99.90;;;;;;5104632;28;20020;-73
2022/02/21 10:12:22;;;;;;;25.60;5.68;;;13.20;99.90;;;;;;5094071;28;20038;-77
2022/02/21 10:17:32;;;;;;;25.02;5.93;;;15.20;99.90;;;;;;5106225;28;20293;-75
2022/02/21 10:20:05;;;;;;;18.45;5.10;;;17.50;99.90;;;;;;5114085;28;20028;-73
2022/02/21 10:22:32;;;;;;;18.98;4.65;;;19.70;99.90;;;;;;5101610;28;20029;-73
2022/02/21 10:24:59;;;;;;;18.95;5.40;;;18.90;99.90;;;;;;5105723;28;20027;-77
2022/02/21 10:27:28;;;;;;;26.73;5.82;;;19.40;99.90;;;;;;5111751;28;20099;-74
2022/02/21 10:30:00;;;;;;;20.50;5.57;;;18.90;99.90;;;;;;5113925;28;20110;-74
2022/02/21 10:32:30;;;;;;;22.08;6.07;;;16.70;99.90;;;;;;5113769;28;20433;-72
2022/02/21 10:35:10;;;;;;;21.33;5.30;;;15.80;99.90;;;;;;5114407;28;20089;-72
2022/02/21 10:37:40;;;;;;;;;;;16.80;99.90;;;;;;5094632;28;20043;-75
2022/02/21 10:40:08;;;;;;;22.58;5.80;;;17.00;99.90;;;;;;5093590;28;20325;-74
2022/02/21 10:42:34;;;;;;;18.15;6.75;;;18.60;99.90;;;;;;5111356;28;20016;-71
2022/02/21 10:45:15;;;;;;;19.73;5.53;;;20.60;99.90;;;;;;5096285;28;20031;-76
2022/02/21 10:48:04;;;;;;;18.75;5.50;;;22.00;95.00;;;;;;5113164;28;20508;-71
2022/02/21 10:50:36;;;;;;;22.15;6.68;;;21.90;93.00;;;;;;5113443;28;20107;-71
2022/02/21 10:53:13;;;;;;;25.30;6.60;;;21.70;91.50;;;;;;5114433;28;20047;-74
2022/02/21 10:55:40;;;;;;;23.98;6.60;;;21.50;93.30;;;;;;5111425;28;20027;-74
2022/02/21 10:58:24;;;;;;;20.20;6.53;;;21.60;91.90;;;;;;5113497;28;20429;-73
2022/02/21 11:00:51;;;;;;;19.05;6.28;;;22.30;88.80;;;;;;5111265;28;20084;-72
2022/02/21 11:03:25;;;;;;;23.38;6.97;;;22.30;85.50;;;;;;5092346;28;20020;-73
2022/02/21 11:05:52;;;;;;;21.58;5.93;;;22.40;84.40;;;;;;5092615;28;20509;-74
2022/02/21 11:08:19;;;;;;;25.08;6.65;;;23.00;80.60;;;;;;5091970;28;20386;-70
2022/02/21 11:11:09;;;;;;;26.48;6.57;;;22.40;77.40;;;;;;5092887;28;20036;-76
2022/02/21 11:13:36;;;;;;;24.65;6.20;;;21.20;82.20;;;;;;5112053;28;20024;-76
2022/02/21 11:16:03;;;;;;;19.27;6.18;;;22.00;80.70;;;;;;5112983;28;20073;-75
2022/02/21 11:18:29;;;;;;;19.48;6.15;;;23.60;76.60;;;;;;5113826;28;20475;-73
2022/02/21 11:20:55;;;;;;;24.45;6.43;;;23.60;70.90;;;;;;5112907;28;20027;-71
2022/02/21 11:23:21;;;;;;;24.05;7.20;;;23.60;86.70;;;;;;5113712;28;20522;-71
2022/02/21 11:26:07;;;;;;;21.08;6.32;;;23.30;78.30;;;;;;5094553;28;20028;-73
2022/02/21 11:28:37;;;;;;;21.55;6.00;;;22.20;68.70;;;;;;5108387;28;20024;-73
2022/02/21 11:31:06;;;;;;;18.75;5.95;;;22.10;71.60;;;;;;5097761;28;20039;-71
2022/02/21 11:33:32;;;;;;;26.52;6.95;;;21.10;73.30;;;;;;5114968;28;20061;-71
2022/02/21 11:36:02;;;;;;;21.45;6.70;;;20.40;76.10;;;;;;5116506;28;20175;-73
2022/02/21 11:38:29;;;;;;;22.60;6.50;;;18.90;76.90;;;;;;5115873;28;20039;-73
2022/02/21 11:41:07;;;;;;;21.70;5.95;;;17.40;90.30;;;;;;5115835;28;20024;-71
2022/02/21 11:43:44;;;;;;;20.77;5.18;;;16.50;92.30;;;;;;5116042;28;20019;-70
2022/02/21 11:46:19;;;;;;;23.83;5.63;;;15.90;95.40;;;;;;5116609;28;20032;-72
2022/02/21 11:49:08;;;;;;;21.15;4.95;;;15.50;97.90;;;;;;5116648;28;20023;-72
2022/02/21 11:51:37;;;;;;;23.02;5.85;;;14.50;99.90;;;;;;5116558;28;20027;-74
2022/02/21 11:54:09;;;;;;;22.13;5.53;;;13.90;99.90;;;;;;5116392;27;20031;-76
2022/02/21 11:56:55;;;;;;;20.48;4.63;;;13.80;99.90;;;;;;5116816;28;20023;-74
2022/02/21 11:59:21;;;;;;;25.67;6.60;;;13.70;99.90;;;;;;5116842;28;20104;-73
2022/02/21 12:01:59;;;;;;;26.20;6.85;;;13.60;99.90;;;;;;5116295;28;20501;-73
2022/02/21 12:04:26;;;;;;;23.33;6.47;;;13.70;99.90;;;;;;5116434;28;20048;-73
2022/02/21 12:07:00;;;;;;;25.35;6.50;;;13.90;99.90;;;;;;5116229;28;20157;-73
2022/02/21 12:09:27;;;;;;;27.52;6.95;;;14.10;99.90;;;;;;5116167;28;20032;-73
2022/02/21 12:12:22;;;;;;;25.15;5.60;;;14.50;99.90;;;;;;5116068;28;20023;-76
2022/02/21 12:15:10;;;;;;;26.45;6.32;;;14.90;99.90;;;;;;5116379;28;20027;-74
2022/02/21 12:17:35;;;;;;;28.85;6.20;;;15.50;99.90;;;;;;5116451;28;20024;-73
2022/02/21 12:20:27;;;;;;;28.27;6.70;;;15.60;99.90;;;;;;5116484;28;20145;-75
2022/02/21 12:23:12;;;;;;;30.45;5.88;;;16.40;99.90;;;;;;5116041;28;20026;-73
2022/02/21 12:25:41;;;;;;;22.23;5.45;;;16.70;99.90;;;;;;5116329;28;20445;-73
2022/02/21 12:28:27;;;;;;;22.20;6.97;;;16.40;99.90;;;;;;5115815;28;20027;-73
2022/02/21 12:30:54;;;;;;;24.98;6.32;;;15.20;99.90;;;;;;5116096;27;20442;-72
2022/02/21 12:33:25;;;;;;;30.17;6.97;;;14.50;99.90;;;;;;5115741;28;20051;-73
2022/02/21 12:36:05;;;;;;;23.80;6.15;;;14.10;99.90;;;;;;5115901;28;20153;-73
2022/02/21 12:38:40;;;;;;;25.57;7.07;;;13.90;99.90;;;;;;5114926;28;20072;-72
2022/02/21 12:41:08;;;;;;;25.85;6.47;;;14.00;99.90;;;;;;5114034;28;20265;-71
2022/02/21 12:43:58;;;;;;;25.52;5.60;;;13.90;99.90;;;;;;5115546;28;20504;-72
2022/02/21 12:46:26;;;;;;;25.35;6.00;;;14.30;99.90;;;;;;5101905;28;20516;-74